Time;durP1;ratioP1;P1;durP2;ratioP2;P2;SDS_P1;SDS_P2;PMS_P1;PMS_P2;Temp;Humidity;BMP_temperature;BMP_pressure;BME280_temperature;BME280_humidity;BME280_pressure;Samples;Min_cycle;Max_cycle;Signal;HPM_P1;HPM_P2
2022/04/26 03:36:06;;;;;;;16.88;12.27;;;;;;;;;;5073880;28;20032;-70
2022/04/26 19:13:48;;;;;;;35.97;25.25;;;;;;;;;;5015472;28;20050;-78
2022/04/26 19:16:14;;;;;;;28.45;20.45;;;;;;;;;;5034050;28;20025;-78
2022/04/26 19:18:39;;;;;;;20.55;15.70;;;;;;;;;;5034299;28;20520;-78
2022/04/26 19:21:06;;;;;;;17.27;12.80;;;;;;;;;;5033959;28;20381;-78
2022/04/26 19:23:32;;;;;;;34.15;21.17;;;;;;;;;;5034160;28;20096;-78
2022/04/26 19:25:59;;;;;;;22.73;16.13;;;;;;;;;;5033243;28;20048;-78
2022/04/26 19:28:25;;;;;;;25.02;14.65;;;;;;;;;;5012932;28;20049;-78
2022/04/26 19:30:50;;;;;;;42.78;19.55;;;;;;;;;;5031053;28;20029;-77
2022/04/26 19:33:15;;;;;;;59.80;29.35;;;;;;;;;;5030644;28;20465;-78
2022/04/26 19:35:41;;;;;;;92.35;35.60;;;;;;;;;;5030606;28;20018;-78
2022/04/26 19:38:07;;;;;;;67.22;34.45;;;;;;;;;;5030581;28;20026;-78
2022/04/26 19:40:32;;;;;;;59.28;27.92;;;;;;;;;;5045657;28;20362;-78
2022/04/26 19:42:58;;;;;;;54.08;27.08;;;;;;;;;;5030492;28;20071;-78
2022/04/26 19:45:23;;;;;;;44.75;22.15;;;;;;;;;;5045613;28;20461;-78
2022/04/26 19:47:48;;;;;;;42.75;23.02;;;;;;;;;;5030469;28;20061;-78
2022/04/26 19:53:08;;;;;;;44.25;26.35;;;;;;;;;;4971986;28;20047;-78
2022/04/26 19:55:33;;;;;;;56.85;33.33;;;;;;;;;;5030241;28;20682;-78
2022/04/26 19:57:59;;;;;;;63.40;37.17;;;;;;;;;;5030198;28;20068;-78
2022/04/26 20:00:24;;;;;;;43.80;26.20;;;;;;;;;;5030337;28;20144;-78
2022/04/26 20:02:49;;;;;;;44.42;26.08;;;;;;;;;;5029453;28;20073;-78
2022/04/26 20:05:15;;;;;;;49.05;30.33;;;;;;;;;;5045359;28;20392;-78
2022/04/26 20:07:40;;;;;;;45.58;28.80;;;;;;;;;;5045496;28;20068;-78
2022/04/26 20:10:06;;;;;;;55.10;31.20;;;;;;;;;;5030195;28;20112;-78
2022/04/26 20:12:33;;;;;;;128.05;58.47;;;;;;;;;;5011578;28;20493;-78
2022/04/26 20:14:58;;;;;;;138.55;63.45;;;;;;;;;;5030087;28;20075;-78
2022/04/26 20:17:24;;;;;;;124.07;58.55;;;;;;;;;;5030138;28;20021;-78
2022/04/26 20:19:51;;;;;;;121.75;57.53;;;;;;;;;;5030396;28;20053;-78
2022/04/26 20:22:16;;;;;;;103.70;50.03;;;;;;;;;;5030630;28;20036;-78
2022/04/26 20:24:42;;;;;;;67.97;36.05;;;;;;;;;;5031887;28;20025;-78
2022/04/26 20:29:52;;;;;;;79.50;42.33;;;;;;;;;;5045147;28;20079;-78
2022/04/26 20:32:21;;;;;;;75.83;39.90;;;;;;;;;;5030016;28;20072;-78
2022/04/26 20:34:48;;;;;;;70.85;41.22;;;;;;;;;;5029949;28;20279;-78
2022/04/26 20:37:15;;;;;;;54.30;34.50;;;;;;;;;;5029815;28;20448;-78
2022/04/26 20:39:41;;;;;;;34.63;22.63;;;;;;;;;;5030125;28;20038;-78
2022/04/26 20:42:06;;;;;;;39.58;25.38;;;;;;;;;;5029850;28;20029;-78
2022/04/26 20:44:32;;;;;;;111.78;36.58;;;;;;;;;;5029792;28;20075;-78
2022/04/26 20:46:57;;;;;;;27.90;16.63;;;;;;;;;;5029739;28;20040;-78
2022/04/26 20:49:23;;;;;;;25.45;16.92;;;;;;;;;;5029229;28;20111;-78
2022/04/26 20:51:48;;;;;;;42.90;29.30;;;;;;;;;;5029265;28;20048;-78
2022/04/26 20:54:14;;;;;;;38.47;26.90;;;;;;;;;;5034289;28;20033;-78
2022/04/26 20:56:39;;;;;;;28.38;19.50;;;;;;;;;;5034465;28;20104;-77
2022/04/26 20:59:07;;;;;;;33.72;19.83;;;;;;;;;;5034776;28;20029;-77
2022/04/26 21:01:32;;;;;;;50.58;27.75;;;;;;;;;;5035227;28;20025;-77
2022/04/26 21:03:59;;;;;;;76.18;41.28;;;;;;;;;;5035099;28;20481;-77
2022/04/26 21:06:25;;;;;;;86.70;47.97;;;;;;;;;;5035298;28;20040;-77
2022/04/26 21:08:51;;;;;;;65.20;38.38;;;;;;;;;;5034751;28;20021;-79
2022/04/26 21:11:17;;;;;;;45.90;27.58;;;;;;;;;;5034687;28;20045;-77
2022/04/26 21:13:42;;;;;;;48.47;27.05;;;;;;;;;;5034146;28;20033;-73
2022/04/26 21:16:08;;;;;;;42.45;26.48;;;;;;;;;;5034562;28;20029;-73
2022/04/26 21:18:34;;;;;;;25.90;18.90;;;;;;;;;;5017014;28;20026;-73
2022/04/26 21:21:00;;;;;;;25.42;17.55;;;;;;;;;;5034534;28;20100;-76
2022/04/26 21:23:26;;;;;;;33.22;22.33;;;;;;;;;;5034731;28;20477;-77
2022/04/26 21:25:53;;;;;;;46.67;27.80;;;;;;;;;;5017000;28;20021;-76
2022/04/26 21:28:19;;;;;;;35.95;22.88;;;;;;;;;;5034669;28;20044;-77
2022/04/26 21:30:44;;;;;;;27.15;18.58;;;;;;;;;;5034272;28;20029;-77
2022/04/26 21:33:10;;;;;;;26.50;18.58;;;;;;;;;;5034404;28;20029;-73
2022/04/26 21:35:35;;;;;;;29.33;19.02;;;;;;;;;;5034701;28;20049;-72
2022/04/26 21:38:01;;;;;;;27.67;18.38;;;;;;;;;;5034363;28;20037;-76
2022/04/26 21:40:26;;;;;;;26.45;18.52;;;;;;;;;;5034630;28;20100;-75
2022/04/26 21:42:52;;;;;;;84.47;27.33;;;;;;;;;;5034549;28;20030;-75
2022/04/26 21:45:18;;;;;;;85.80;31.65;;;;;;;;;;5034563;28;20033;-75
2022/04/26 21:47:43;;;;;;;63.88;27.73;;;;;;;;;;5034285;28;20026;-76
2022/04/26 21:52:53;;;;;;;29.05;16.92;;;;;;;;;;5034158;28;20033;-79
2022/04/26 21:55:19;;;;;;;50.45;24.25;;;;;;;;;;5034113;28;20403;-78
2022/04/26 21:57:44;;;;;;;51.53;26.00;;;;;;;;;;5034148;28;20545;-79
2022/04/26 22:00:33;;;;;;;47.28;26.20;;;;;;;;;;5033829;28;20100;-79
2022/04/26 22:02:59;;;;;;;38.00;23.10;;;;;;;;;;5028770;28;20049;-73
2022/04/26 22:05:25;;;;;;;34.58;22.08;;;;;;;;;;5034073;28;20036;-73
2022/04/26 22:07:50;;;;;;;29.85;20.75;;;;;;;;;;5049323;28;20065;-74
2022/04/26 22:10:16;;;;;;;34.25;21.92;;;;;;;;;;5034200;28;20449;-82
2022/04/26 22:12:42;;;;;;;40.70;26.80;;;;;;;;;;5048758;28;20055;-84
2022/04/26 22:15:07;;;;;;;35.88;23.65;;;;;;;;;;5033775;28;20029;-81
2022/04/26 22:17:33;;;;;;;32.33;21.10;;;;;;;;;;5033601;28;20428;-79
2022/04/26 22:19:58;;;;;;;31.80;21.02;;;;;;;;;;5033571;28;20021;-79
2022/04/26 22:22:24;;;;;;;32.35;20.75;;;;;;;;;;5034008;28;20080;-79
2022/04/26 22:24:50;;;;;;;35.20;23.98;;;;;;;;;;5033316;28;20087;-78
2022/04/26 22:27:16;;;;;;;31.40;21.98;;;;;;;;;;5033637;28;20033;-78
2022/04/26 22:29:42;;;;;;;30.33;20.05;;;;;;;;;;5034162;28;20048;-84
2022/04/26 22:32:10;;;;;;;28.40;19.30;;;;;;;;;;5033612;28;20068;-75
2022/04/26 22:34:36;;;;;;;41.25;32.88;;;;;;;;;;5033483;28;20021;-79
2022/04/26 22:37:02;;;;;;;50.58;37.60;;;;;;;;;;5033649;28;20498;-80
2022/04/26 22:39:27;;;;;;;31.05;21.48;;;;;;;;;;5033373;28;20021;-81
2022/04/26 22:41:53;;;;;;;27.83;18.45;;;;;;;;;;5033373;28;20022;-78
2022/04/26 22:44:18;;;;;;;26.38;17.70;;;;;;;;;;5034106;28;20468;-78
2022/04/26 22:46:43;;;;;;;29.60;17.88;;;;;;;;;;5033926;28;20071;-80
2022/04/26 22:49:09;;;;;;;32.53;20.92;;;;;;;;;;5033356;28;20511;-80
2022/04/26 22:51:34;;;;;;;39.88;25.25;;;;;;;;;;5033135;28;20037;-80
2022/04/26 22:54:00;;;;;;;33.95;22.45;;;;;;;;;;5033818;28;20015;-80
2022/04/26 22:56:25;;;;;;;38.75;24.77;;;;;;;;;;5033729;28;20030;-78
2022/04/26 22:58:50;;;;;;;34.90;23.02;;;;;;;;;;5033610;28;20045;-79
2022/04/26 23:01:17;;;;;;;35.63;23.40;;;;;;;;;;5033488;28;20108;-78
2022/04/26 23:03:44;;;;;;;34.63;20.65;;;;;;;;;;5015685;28;20053;-79
2022/04/26 23:06:10;;;;;;;31.95;20.75;;;;;;;;;;5033764;28;20468;-79
2022/04/26 23:08:36;;;;;;;31.08;19.80;;;;;;;;;;5032355;28;20125;-79
2022/04/26 23:11:06;;;;;;;33.63;20.33;;;;;;;;;;5031620;28;20029;-77
2022/04/26 23:13:34;;;;;;;28.13;19.75;;;;;;;;;;4996859;28;20069;-78
2022/04/26 23:15:59;;;;;;;26.63;18.60;;;;;;;;;;4995772;28;20482;-78
2022/04/26 23:18:29;;;;;;;29.45;20.02;;;;;;;;;;5011388;28;20038;-78
2022/04/26 23:21:00;;;;;;;35.28;21.13;;;;;;;;;;4996369;28;20435;-79
2022/04/26 23:23:26;;;;;;;34.42;22.17;;;;;;;;;;5013361;28;20436;-78
2022/04/26 23:25:52;;;;;;;33.65;21.63;;;;;;;;;;4995860;28;20080;-78
2022/04/26 23:28:20;;;;;;;35.22;22.15;;;;;;;;;;5013450;28;20053;-79
2022/04/26 23:30:46;;;;;;;32.13;20.75;;;;;;;;;;5012992;28;20056;-79
2022/04/26 23:33:16;;;;;;;30.27;19.42;;;;;;;;;;5013386;28;20463;-80
2022/04/26 23:35:52;;;;;;;27.05;17.85;;;;;;;;;;4995708;28;20022;-80
2022/04/26 23:38:20;;;;;;;33.63;22.17;;;;;;;;;;4997869;28;20030;-79
2022/04/26 23:40:52;;;;;;;31.10;20.35;;;;;;;;;;5016540;28;20033;-78
2022/04/26 23:43:19;;;;;;;27.90;18.80;;;;;;;;;;5016764;28;20486;-79
2022/04/26 23:45:47;;;;;;;29.08;19.13;;;;;;;;;;4998652;28;20636;-80
2022/04/26 23:48:27;;;;;;;28.08;17.70;;;;;;;;;;5016540;28;20135;-79
2022/04/26 23:53:39;;;;;;;29.90;17.98;;;;;;;;;;5016624;28;20038;-72
2022/04/26 23:56:08;;;;;;;24.75;17.27;;;;;;;;;;5016502;28;20021;-71
2022/04/26 23:58:36;;;;;;;28.23;17.65;;;;;;;;;;5016307;28;20030;-72
